createdAt,value
2023-05-16T00:01:30.919Z,94204.22
2023-05-16T00:03:59.149Z,94206.88
2023-05-16T00:06:27.140Z,94209.06
2023-05-16T00:08:56.402Z,94214.69
2023-05-16T00:11:24.443Z,94210.88
2023-05-16T00:13:55.115Z,94209.69
2023-05-16T00:16:25.940Z,94201.84
2023-05-16T00:18:54.000Z,94189.78
2023-05-16T00:21:23.721Z,94190.75
2023-05-16T00:23:52.871Z,94196.19
2023-05-16T00:26:22.391Z,94199.03
2023-05-16T00:28:50.355Z,94199.63
2023-05-16T00:31:18.374Z,94194.19
2023-05-16T00:33:46.452Z,94179.13
2023-05-16T00:36:14.399Z,94197.81
2023-05-16T00:38:42.336Z,94171.31
2023-05-16T00:41:10.247Z,94185.94
2023-05-16T00:43:39.785Z,94187.94
2023-05-16T00:46:07.731Z,94176.09
2023-05-16T00:48:35.823Z,94171.06
2023-05-16T00:51:03.939Z,94152.00
2023-05-16T00:53:31.882Z,94159.03
2023-05-16T00:56:00.423Z,94155.22
2023-05-16T00:58:29.168Z,94153.63
2023-05-16T01:00:58.629Z,94141.34
2023-05-16T01:03:27.321Z,94153.41
2023-05-16T01:05:55.376Z,94140.56
2023-05-16T01:08:23.330Z,94156.41
2023-05-16T01:11:00.745Z,94154.00
2023-05-16T01:13:35.138Z,94150.97
2023-05-16T01:16:11.295Z,94157.63
2023-05-16T01:18:50.157Z,94145.16
2023-05-16T01:21:28.357Z,94140.34
2023-05-16T01:24:11.196Z,94142.78
2023-05-16T01:26:42.602Z,94124.72
2023-05-16T01:29:12.872Z,94133.72
2023-05-16T01:31:40.792Z,94127.91
2023-05-16T01:34:09.062Z,94109.22
2023-05-16T01:36:45.510Z,94124.31
2023-05-16T01:39:21.190Z,94121.31
2023-05-16T01:41:57.276Z,94118.50
2023-05-16T01:44:30.418Z,94107.03
2023-05-16T01:47:01.223Z,94092.59
2023-05-16T01:49:36.212Z,94111.47
2023-05-16T01:52:11.133Z,94115.69
2023-05-16T01:54:42.612Z,94112.03
2023-05-16T01:57:13.407Z,94110.03
2023-05-16T01:59:42.856Z,94096.56
2023-05-16T02:02:11.008Z,94106.22
2023-05-16T02:04:38.966Z,94111.66
2023-05-16T02:07:07.412Z,94112.06
2023-05-16T02:09:35.485Z,94093.78
2023-05-16T02:12:04.586Z,94101.22
2023-05-16T02:14:34.008Z,94102.59
2023-05-16T02:17:02.001Z,94111.47
2023-05-16T02:19:30.129Z,94093.59
2023-05-16T02:21:57.952Z,94102.03
2023-05-16T02:24:26.000Z,94102.03
2023-05-16T02:26:53.846Z,94097.38
2023-05-16T02:29:21.777Z,94094.78
2023-05-16T02:31:51.050Z,94098.81
2023-05-16T02:34:18.988Z,94086.16
2023-05-16T02:36:46.976Z,94094.59
2023-05-16T02:39:14.822Z,94103.84
2023-05-16T02:41:42.733Z,94106.66
2023-05-16T02:44:11.058Z,94106.66
2023-05-16T02:46:39.007Z,94101.06
2023-05-16T02:49:08.394Z,94086.16
2023-05-16T02:51:36.234Z,94094.00
2023-05-16T02:54:05.674Z,94095.19
2023-05-16T02:56:33.564Z,94098.59
2023-05-16T02:59:01.720Z,94069.09
2023-05-16T03:01:29.681Z,94089.16
2023-05-16T03:03:57.874Z,94082.53
2023-05-16T03:06:27.344Z,94081.13
2023-05-16T03:08:55.229Z,94091.13
2023-05-16T03:11:24.148Z,94090.94
2023-05-16T03:13:52.139Z,94093.13
2023-05-16T03:16:20.816Z,94090.13
2023-05-16T03:18:48.813Z,94092.31
2023-05-16T03:21:16.878Z,94074.84
2023-05-16T03:23:46.173Z,94092.09
2023-05-16T03:26:14.085Z,94084.88
2023-05-16T03:28:41.974Z,94077.06
2023-05-16T03:31:10.010Z,94065.00
2023-05-16T03:33:37.878Z,94075.63
2023-05-16T03:36:06.450Z,94079.63
2023-05-16T03:38:34.363Z,94075.63
2023-05-16T03:41:03.627Z,94071.00
2023-05-16T03:43:31.592Z,94068.00
2023-05-16T03:45:59.565Z,94076.84
2023-05-16T03:48:27.432Z,94084.69
2023-05-16T03:50:55.612Z,94077.63
2023-05-16T03:53:23.478Z,94096.09
2023-05-16T03:55:51.559Z,94088.09
2023-05-16T03:58:20.900Z,94088.28
2023-05-16T04:00:48.873Z,94083.03
2023-05-16T04:03:16.829Z,94077.63
2023-05-16T04:05:45.151Z,94087.22
2023-05-16T04:08:13.160Z,94084.25
2023-05-16T04:10:41.155Z,94088.44
2023-05-16T04:13:11.697Z,94096.91
2023-05-16T04:15:41.060Z,94098.31
2023-05-16T04:18:09.855Z,94095.91
2023-05-16T04:20:37.849Z,94086.88
2023-05-16T04:23:05.889Z,94095.72
2023-05-16T04:25:33.860Z,94097.50
2023-05-16T04:28:02.264Z,94086.44
2023-05-16T04:30:30.299Z,94085.22
2023-05-16T04:32:59.930Z,94075.03
2023-05-16T04:35:29.352Z,94079.22
2023-05-16T04:37:57.483Z,94071.19
2023-05-16T04:40:27.879Z,94070.75
2023-05-16T04:42:55.805Z,94068.41
2023-05-16T04:45:23.893Z,94064.72
2023-05-16T04:47:52.394Z,94049.72
2023-05-16T04:50:21.862Z,94082.59
2023-05-16T04:52:49.812Z,94095.44
2023-05-16T04:55:18.020Z,94092.41
2023-05-16T04:57:46.250Z,94087.97
2023-05-16T05:00:16.403Z,94067.47
2023-05-16T05:02:44.643Z,94084.56
2023-05-16T05:05:12.830Z,94077.75
2023-05-16T05:07:42.915Z,94040.22
2023-05-16T05:10:11.954Z,94092.56
2023-05-16T05:12:39.762Z,94091.53
2023-05-16T05:15:08.769Z,94102.38
2023-05-16T05:17:37.882Z,94086.91
2023-05-16T05:20:08.738Z,94091.53
2023-05-16T05:22:36.699Z,94096.31
2023-05-16T05:25:07.317Z,94094.91
2023-05-16T05:27:35.289Z,94095.13
2023-05-16T05:30:03.510Z,94094.72
2023-05-16T05:32:31.513Z,94082.84
2023-05-16T05:34:59.645Z,94072.22
2023-05-16T05:37:27.880Z,94061.19
2023-05-16T05:39:55.907Z,94066.94
2023-05-16T05:42:25.238Z,94052.31
2023-05-16T05:44:53.125Z,94060.53
2023-05-16T05:47:21.754Z,94071.50
2023-05-16T05:49:49.852Z,94061.69
2023-05-16T05:52:17.776Z,94059.66
2023-05-16T05:54:45.923Z,94066.25
2023-05-16T05:57:13.824Z,94070.09
2023-05-16T05:59:43.212Z,94076.66
2023-05-16T06:02:11.355Z,94046.41
2023-05-16T06:04:39.376Z,94055.00
2023-05-16T06:07:07.250Z,94058.19
2023-05-16T06:09:35.286Z,94067.25
2023-05-16T06:12:04.329Z,94061.03
2023-05-16T06:14:32.265Z,94061.19
2023-05-16T06:17:01.668Z,94067.97
2023-05-16T06:19:29.630Z,94058.72
2023-05-16T06:21:57.552Z,94061.41
2023-05-16T06:24:25.483Z,94067.41
2023-05-16T06:26:53.446Z,94071.69
2023-05-16T06:29:21.346Z,94071.03
2023-05-16T06:31:50.277Z,94076.50
2023-05-16T06:34:23.991Z,94069.66
2023-05-16T06:36:51.874Z,94065.63
2023-05-16T06:39:19.844Z,94060.81
2023-05-16T06:41:47.846Z,94051.34
2023-05-16T06:44:15.780Z,94045.75
2023-05-16T06:46:43.875Z,94057.22
2023-05-16T06:49:11.922Z,94048.53
2023-05-16T06:51:41.613Z,94043.88
2023-05-16T06:54:09.674Z,94035.63
2023-05-16T06:56:38.128Z,94022.72
2023-05-16T06:59:06.174Z,94011.84
2023-05-16T07:01:34.196Z,94037.81
2023-05-16T07:04:02.290Z,94016.50
2023-05-16T07:06:30.304Z,94033.50
2023-05-16T07:08:59.593Z,94014.41
2023-05-16T07:11:27.539Z,94025.81
2023-05-16T07:13:55.620Z,94036.59
2023-05-16T07:16:24.412Z,94024.03
2023-05-16T07:18:52.538Z,94030.28
2023-05-16T07:21:20.835Z,94011.94
2023-05-16T07:23:56.528Z,94006.88
2023-05-16T07:26:26.752Z,94001.16
2023-05-16T07:28:55.908Z,94018.41
2023-05-16T07:31:24.246Z,94002.94
2023-05-16T07:33:52.297Z,94007.69
2023-05-16T07:36:20.289Z,94015.22
2023-05-16T07:38:48.286Z,94021.84
2023-05-16T07:41:16.373Z,94014.53
2023-05-16T07:43:48.211Z,94026.78
2023-05-16T07:46:16.240Z,94043.34
2023-05-16T07:48:44.275Z,94036.53
2023-05-16T07:51:14.476Z,94029.97
2023-05-16T07:53:42.837Z,94037.19
2023-05-16T07:56:11.160Z,94036.97
2023-05-16T07:58:39.544Z,94021.66
2023-05-16T08:01:09.147Z,94017.75
2023-05-16T08:03:38.036Z,93996.28
2023-05-16T08:06:06.618Z,94014.31
2023-05-16T08:08:34.631Z,94005.66
2023-05-16T08:11:02.656Z,94005.53
2023-05-16T08:13:31.793Z,94005.28
2023-05-16T08:15:59.999Z,94010.00
2023-05-16T08:18:29.432Z,94009.91
2023-05-16T08:20:57.575Z,93995.75
2023-05-16T08:23:25.565Z,94003.69
2023-05-16T08:25:54.815Z,94004.41
2023-05-16T08:28:22.878Z,93997.25
2023-05-16T08:30:51.249Z,94021.59
2023-05-16T08:33:19.361Z,94012.53
2023-05-16T08:35:49.555Z,94017.91
2023-05-16T08:38:17.473Z,94019.38
2023-05-16T08:40:45.521Z,94005.97
2023-05-16T08:43:13.657Z,94020.59
2023-05-16T08:45:42.304Z,94022.00
2023-05-16T08:48:12.395Z,94021.78
2023-05-16T08:50:42.877Z,94005.56
2023-05-16T08:53:13.536Z,94006.34
2023-05-16T08:55:43.616Z,94008.19
2023-05-16T08:58:12.194Z,94020.03
2023-05-16T09:00:41.520Z,94029.88
2023-05-16T09:03:09.866Z,94019.31
2023-05-16T09:05:38.309Z,94001.97
2023-05-16T09:08:06.856Z,94013.66
2023-05-16T09:10:36.209Z,94019.06
2023-05-16T09:13:04.461Z,94013.25
2023-05-16T09:15:34.222Z,94013.44
2023-05-16T09:18:03.437Z,94010.09
2023-05-16T09:20:31.742Z,94020.84
2023-05-16T09:23:01.111Z,94010.47
2023-05-16T09:25:31.840Z,94020.06
2023-05-16T09:28:03.563Z,94028.91
2023-05-16T09:30:34.129Z,94011.50
2023-05-16T09:33:02.970Z,94018.72
2023-05-16T09:35:43.943Z,94015.59
2023-05-16T09:38:17.230Z,94021.28
2023-05-16T09:40:46.687Z,94004.75
2023-05-16T09:43:18.732Z,93985.91
2023-05-16T09:45:49.158Z,93998.88
2023-05-16T09:48:18.389Z,94012.50
2023-05-16T09:50:52.362Z,94019.00
2023-05-16T09:53:27.905Z,93998.91
2023-05-16T09:56:03.695Z,93998.97
2023-05-16T09:58:34.872Z,93988.22
2023-05-16T10:01:03.581Z,93968.44
2023-05-16T10:03:32.134Z,93990.56
2023-05-16T10:06:01.826Z,93982.34
2023-05-16T10:08:36.306Z,93997.03
2023-05-16T10:11:06.493Z,93974.53
2023-05-16T10:13:40.394Z,94009.00
2023-05-16T10:16:11.424Z,93997.69
2023-05-16T10:18:41.217Z,94010.25
2023-05-16T10:21:15.158Z,94009.47
2023-05-16T10:23:44.764Z,94016.72
2023-05-16T10:26:14.744Z,94006.13
2023-05-16T10:28:44.769Z,94018.09
2023-05-16T10:31:12.836Z,94006.06
2023-05-16T10:33:41.658Z,94002.69
2023-05-16T10:36:13.343Z,94001.13
2023-05-16T10:38:42.253Z,93995.72
2023-05-16T10:41:10.744Z,93978.78
2023-05-16T10:43:38.881Z,93979.19
2023-05-16T10:46:10.409Z,93938.00
2023-05-16T10:48:39.948Z,93943.47
2023-05-16T10:51:37.388Z,93948.31
2023-05-16T10:54:10.949Z,93938.31
2023-05-16T10:56:39.209Z,93960.47
2023-05-16T10:59:24.157Z,93965.72
2023-05-16T11:01:56.279Z,93948.91
2023-05-16T11:04:24.481Z,93960.56
2023-05-16T11:06:54.736Z,93951.91
2023-05-16T11:09:25.659Z,93939.22
2023-05-16T11:12:11.217Z,93963.31
2023-05-16T11:14:42.565Z,93957.66
2023-05-16T11:17:16.518Z,93971.00
2023-05-16T11:19:46.565Z,93973.03
2023-05-16T11:22:26.788Z,93970.50
2023-05-16T11:24:58.244Z,93988.47
2023-05-16T11:27:28.633Z,93984.38
2023-05-16T11:30:02.737Z,93995.41
2023-05-16T11:32:35.999Z,93989.81
2023-05-16T11:35:05.171Z,93964.66
2023-05-16T11:37:33.376Z,93992.06
2023-05-16T11:40:02.390Z,93987.34
2023-05-16T11:42:34.013Z,93982.13
2023-05-16T11:45:07.232Z,93970.94
2023-05-16T11:47:38.499Z,93981.88
2023-05-16T11:50:07.893Z,93969.59
2023-05-16T11:52:35.972Z,93933.47
2023-05-16T11:55:06.469Z,93953.97
2023-05-16T11:57:34.679Z,93972.72
2023-05-16T12:00:06.634Z,93954.94
2023-05-16T12:02:36.285Z,93966.41
2023-05-16T12:05:10.240Z,93949.69
2023-05-16T12:07:38.579Z,93947.22
2023-05-16T12:10:08.001Z,93945.53
2023-05-16T12:12:36.598Z,93913.69
2023-05-16T12:15:06.585Z,93915.31
2023-05-16T12:17:37.138Z,93942.47
2023-05-16T12:20:07.900Z,93932.75
2023-05-16T12:22:35.935Z,93941.13
2023-05-16T12:25:27.432Z,93930.72
2023-05-16T12:27:56.027Z,93934.97
2023-05-16T12:30:25.677Z,93932.59
2023-05-16T12:32:57.846Z,93905.78
2023-05-16T12:35:26.528Z,93945.50
2023-05-16T12:37:56.017Z,93926.84
2023-05-16T12:40:24.416Z,93937.94
2023-05-16T12:42:52.811Z,93944.63
2023-05-16T12:45:21.233Z,93907.19
2023-05-16T12:47:49.259Z,93927.03
2023-05-16T12:50:18.715Z,93945.81
2023-05-16T12:52:51.671Z,93942.00
2023-05-16T12:55:20.673Z,93939.53
2023-05-16T12:57:49.879Z,93935.97
2023-05-16T13:00:20.043Z,93943.69
2023-05-16T13:02:49.216Z,93942.50
2023-05-16T13:05:18.930Z,93951.97
2023-05-16T13:07:47.093Z,93944.22
2023-05-16T13:10:15.211Z,93960.97
2023-05-16T13:12:43.403Z,93950.47
2023-05-16T13:15:13.143Z,93950.91
2023-05-16T13:17:42.361Z,93950.81
2023-05-16T13:20:13.711Z,93926.81
2023-05-16T13:22:44.723Z,93949.25
2023-05-16T13:25:13.502Z,93958.34
2023-05-16T13:27:42.305Z,93954.66
2023-05-16T13:30:11.852Z,93933.91
2023-05-16T13:32:40.049Z,93955.06
2023-05-16T13:35:09.656Z,93967.03
2023-05-16T13:37:39.508Z,93953.97
2023-05-16T13:40:10.704Z,93958.75
2023-05-16T13:42:39.854Z,93962.78
2023-05-16T13:45:09.144Z,93962.50
2023-05-16T13:47:37.873Z,93945.75
2023-05-16T13:50:10.264Z,93944.03
2023-05-16T13:52:39.243Z,93962.47
2023-05-16T13:55:09.644Z,93951.06
2023-05-16T13:57:37.853Z,93982.97
2023-05-16T14:00:43.658Z,93963.75
2023-05-16T14:03:01.639Z,93987.34
2023-05-16T14:05:30.094Z,93984.91
2023-05-16T14:07:58.214Z,93967.59
2023-05-16T14:10:27.809Z,93989.06
2023-05-16T14:12:56.048Z,94007.66
2023-05-16T14:15:24.085Z,93990.38
2023-05-16T14:17:52.183Z,93987.41
2023-05-16T14:20:20.461Z,93971.28
2023-05-16T14:22:48.452Z,93997.34
2023-05-16T14:25:16.804Z,93993.53
2023-05-16T14:27:46.179Z,94002.88
2023-05-16T14:30:14.934Z,93996.91
2023-05-16T14:32:43.160Z,93980.00
2023-05-16T14:35:11.501Z,94003.78
2023-05-16T14:37:39.587Z,94012.56
2023-05-16T14:40:09.243Z,94011.84
2023-05-16T14:42:37.326Z,94018.63
2023-05-16T14:45:07.755Z,94019.06
2023-05-16T14:47:36.464Z,94033.28
2023-05-16T14:50:04.791Z,94009.81
2023-05-16T14:52:32.903Z,94034.31
2023-05-16T14:55:01.576Z,94036.59
2023-05-16T14:57:29.622Z,94005.34
2023-05-16T14:59:58.649Z,94025.63
2023-05-16T15:02:28.153Z,94018.09
2023-05-16T15:04:56.209Z,94018.50
2023-05-16T15:07:24.691Z,94017.47
2023-05-16T15:09:52.862Z,93994.84
2023-05-16T15:12:20.877Z,94023.28
2023-05-16T15:14:48.903Z,94002.06
2023-05-16T15:17:16.950Z,94003.09
2023-05-16T15:19:47.966Z,93998.44
2023-05-16T15:22:16.782Z,93983.25
2023-05-16T15:24:44.908Z,93973.19
2023-05-16T15:27:14.466Z,93976.63
2023-05-16T15:29:44.830Z,93971.25
2023-05-16T15:32:13.845Z,93972.53
2023-05-16T15:34:42.196Z,93948.97
2023-05-16T15:37:11.770Z,93960.84
2023-05-16T15:39:40.113Z,93960.59
2023-05-16T15:42:11.181Z,93959.81
2023-05-16T15:44:40.076Z,93938.16
2023-05-16T15:47:08.696Z,93945.13
2023-05-16T15:49:36.790Z,93957.56
2023-05-16T15:52:05.419Z,93971.69
2023-05-16T15:54:35.101Z,93947.25
2023-05-16T15:57:03.298Z,93952.63
2023-05-16T15:59:31.401Z,93954.66
2023-05-16T16:01:59.448Z,93954.88
2023-05-16T16:04:41.152Z,93957.03
2023-05-16T16:07:11.156Z,93963.81
2023-05-16T16:09:42.776Z,93960.84
2023-05-16T16:12:15.999Z,93949.66
2023-05-16T16:14:45.618Z,93972.81
2023-05-16T16:17:16.655Z,93971.81
2023-05-16T16:19:50.418Z,93983.25
2023-05-16T16:22:22.527Z,93979.25
2023-05-16T16:24:56.270Z,93952.31
2023-05-16T16:27:30.717Z,93944.13
2023-05-16T16:29:59.802Z,93921.50
2023-05-16T16:32:29.891Z,93917.66
2023-05-16T16:35:00.260Z,93906.13
2023-05-16T16:37:30.533Z,93886.28
2023-05-16T16:40:02.156Z,93877.00
2023-05-16T16:42:38.863Z,93900.06
2023-05-16T16:45:10.899Z,93886.94
2023-05-16T16:47:42.016Z,93884.75
2023-05-16T16:50:15.949Z,93860.34
2023-05-16T16:52:44.131Z,93861.59
2023-05-16T16:55:14.910Z,93860.00
2023-05-16T16:57:43.690Z,93851.22
2023-05-16T17:00:14.249Z,93849.50
2023-05-16T17:02:42.404Z,93845.53
2023-05-16T17:05:12.379Z,93848.50
2023-05-16T17:07:40.602Z,93850.09
2023-05-16T17:10:09.690Z,93846.19
2023-05-16T17:12:47.215Z,93866.66
2023-05-16T17:15:15.232Z,93840.97
2023-05-16T17:17:43.265Z,93848.88
2023-05-16T17:20:13.074Z,93828.84
2023-05-16T17:22:42.457Z,93852.78
2023-05-16T17:25:11.580Z,93850.84
2023-05-16T17:27:41.887Z,93854.50
2023-05-16T17:30:11.223Z,93806.94
2023-05-16T17:32:40.016Z,93805.00
2023-05-16T17:35:08.427Z,93799.41
2023-05-16T17:37:36.438Z,93813.13
2023-05-16T17:40:05.942Z,93858.41
2023-05-16T17:42:34.139Z,93881.78
2023-05-16T17:45:04.830Z,93884.84
2023-05-16T17:47:33.181Z,93899.66
2023-05-16T17:50:01.512Z,93875.28
2023-05-16T17:52:29.713Z,93877.13
2023-05-16T17:54:57.909Z,93868.00
2023-05-16T17:57:26.643Z,93857.03
2023-05-16T17:59:54.777Z,93832.50
2023-05-16T18:02:24.257Z,93848.22
2023-05-16T18:04:53.047Z,93856.88
2023-05-16T18:07:21.168Z,93878.53
2023-05-16T18:09:49.872Z,93846.13
2023-05-16T18:12:18.082Z,93841.56
2023-05-16T18:14:46.295Z,93849.47
2023-05-16T18:17:14.576Z,93829.13
2023-05-16T18:19:44.282Z,93825.31
2023-05-16T18:22:13.339Z,93796.34
2023-05-16T18:24:41.363Z,93827.47
2023-05-16T18:27:09.731Z,93853.78
2023-05-16T18:29:38.221Z,93871.69
2023-05-16T18:32:06.994Z,93851.47
2023-05-16T18:34:35.835Z,93852.75
2023-05-16T18:37:06.057Z,93840.75
2023-05-16T18:39:37.921Z,93788.56
2023-05-16T18:42:05.979Z,93800.84
2023-05-16T18:44:34.340Z,93801.19
2023-05-16T18:47:03.914Z,93840.75
2023-05-16T18:49:34.534Z,93822.03
2023-05-16T18:52:04.627Z,93793.97
2023-05-16T18:54:32.716Z,93826.03
2023-05-16T18:57:02.254Z,93852.81
2023-05-16T18:59:31.740Z,93824.97
2023-05-16T19:02:00.200Z,93841.56
2023-05-16T19:04:28.446Z,93841.13
2023-05-16T19:07:03.821Z,93857.09
2023-05-16T19:09:34.081Z,93834.50
2023-05-16T19:12:02.235Z,93826.75
2023-05-16T19:14:30.637Z,93859.94
2023-05-16T19:16:58.586Z,93841.47
2023-05-16T19:19:27.202Z,93844.44
2023-05-16T19:21:55.734Z,93836.41
2023-05-16T19:24:23.800Z,93836.34
2023-05-16T19:26:53.434Z,93846.59
2023-05-16T19:29:22.540Z,93865.28
2023-05-16T19:31:53.643Z,93847.97
2023-05-16T19:34:21.751Z,93855.72
2023-05-16T19:36:50.806Z,93859.34
2023-05-16T19:39:18.847Z,93848.84
2023-05-16T19:41:51.684Z,93855.91
2023-05-16T19:44:21.932Z,93833.22
2023-05-16T19:46:50.458Z,93823.88
2023-05-16T19:49:20.226Z,93834.16
2023-05-16T19:51:48.506Z,93851.25
2023-05-16T19:54:16.524Z,93826.72
2023-05-16T19:56:44.700Z,93822.97
2023-05-16T19:59:12.858Z,93819.81
2023-05-16T20:01:42.365Z,93836.13
2023-05-16T20:04:10.565Z,93834.91
2023-05-16T20:06:38.730Z,93832.59
2023-05-16T20:09:07.829Z,93832.00
2023-05-16T20:11:37.191Z,93846.13
2023-05-16T20:14:05.539Z,93844.84
2023-05-16T20:16:33.734Z,93846.94
2023-05-16T20:19:03.820Z,93834.72
2023-05-16T20:21:32.018Z,93835.66
2023-05-16T20:24:00.039Z,93840.88
2023-05-16T20:26:28.110Z,93846.94
2023-05-16T20:28:56.167Z,93845.47
2023-05-16T20:31:25.148Z,93829.25
2023-05-16T20:34:00.124Z,93806.91
2023-05-16T20:36:29.868Z,93833.84
2023-05-16T20:38:58.012Z,93850.81
2023-05-16T20:41:26.176Z,93854.91
2023-05-16T20:43:54.556Z,93866.22
2023-05-16T20:46:22.551Z,93869.94
2023-05-16T20:48:50.686Z,93873.47
2023-05-16T20:51:18.946Z,93862.28
2023-05-16T20:53:48.376Z,93850.06
2023-05-16T20:56:16.380Z,93866.66
2023-05-16T20:58:47.859Z,93851.16
2023-05-16T21:01:15.837Z,93860.22
2023-05-16T21:03:43.881Z,93856.91
2023-05-16T21:06:12.081Z,93870.16
2023-05-16T21:08:40.136Z,93873.84
2023-05-16T21:11:09.509Z,93865.16
2023-05-16T21:13:37.572Z,93854.31
2023-05-16T21:16:05.986Z,93861.97
2023-05-16T21:18:34.422Z,93864.03
2023-05-16T21:21:02.598Z,93867.28
2023-05-16T21:23:30.530Z,93877.47
2023-05-16T21:25:58.524Z,93857.63
2023-05-16T21:28:28.271Z,93867.66
2023-05-16T21:30:56.462Z,93871.06
2023-05-16T21:33:24.667Z,93874.72
2023-05-16T21:35:53.289Z,93865.53
2023-05-16T21:38:21.266Z,93864.88
2023-05-16T21:40:49.483Z,93859.94
2023-05-16T21:43:17.648Z,93885.91
2023-05-16T21:45:47.487Z,93889.75
2023-05-16T21:48:15.715Z,93883.56
2023-05-16T21:50:44.454Z,93870.31
2023-05-16T21:53:12.497Z,93893.75
2023-05-16T21:55:42.598Z,93881.97
2023-05-16T21:58:10.702Z,93892.28
2023-05-16T22:00:38.710Z,93883.84
2023-05-16T22:03:08.395Z,93892.13
2023-05-16T22:05:36.950Z,93886.63
2023-05-16T22:08:05.456Z,93881.13
2023-05-16T22:10:33.464Z,93897.34
2023-05-16T22:13:01.442Z,93898.31
2023-05-16T22:15:29.899Z,93889.41
2023-05-16T22:17:58.515Z,93857.19
2023-05-16T22:20:28.100Z,93900.59
2023-05-16T22:22:56.124Z,93898.66
2023-05-16T22:25:24.182Z,93898.88
2023-05-16T22:27:52.421Z,93895.53
2023-05-16T22:30:20.566Z,93892.41
2023-05-16T22:32:48.782Z,93900.69
2023-05-16T22:35:17.067Z,93891.75
2023-05-16T22:37:46.411Z,93880.84
2023-05-16T22:40:14.533Z,93875.81
2023-05-16T22:42:42.544Z,93901.50
2023-05-16T22:45:11.198Z,93896.19
2023-05-16T22:47:39.191Z,93913.94
2023-05-16T22:50:08.035Z,93898.72
2023-05-16T22:52:41.149Z,93909.13
2023-05-16T22:55:11.370Z,93902.94
2023-05-16T22:57:39.360Z,93894.16
2023-05-16T23:00:09.128Z,93886.53
2023-05-16T23:02:37.137Z,93895.25
2023-05-16T23:05:05.747Z,93897.06
2023-05-16T23:07:33.808Z,93893.78
2023-05-16T23:10:01.875Z,93889.44
2023-05-16T23:12:31.213Z,93899.59
2023-05-16T23:14:59.310Z,93894.81
2023-05-16T23:17:27.431Z,93892.97
2023-05-16T23:19:55.612Z,93889.66
2023-05-16T23:22:23.909Z,93868.47
2023-05-16T23:24:52.428Z,93864.09
2023-05-16T23:27:20.615Z,93887.03
2023-05-16T23:29:49.909Z,93861.88
2023-05-16T23:32:18.052Z,93861.19
2023-05-16T23:34:46.117Z,93892.75
2023-05-16T23:37:14.068Z,93887.13
2023-05-16T23:39:42.027Z,93885.69
2023-05-16T23:42:09.979Z,93899.22
2023-05-16T23:44:39.668Z,93891.03
2023-05-16T23:47:09.068Z,93900.75
2023-05-16T23:49:36.957Z,93900.97
2023-05-16T23:52:06.103Z,93907.44
2023-05-16T23:54:34.408Z,93902.28
2023-05-16T23:57:02.433Z,93896.06
2023-05-16T23:59:30.390Z,93888.44
